Aviation Digital Data Service (ADDS)

Output produced by METARs form (1202 UTC 19 January 2019)
found at http://www.aviationweather.gov/metar/data/
 
Forecast for: KBIL (BILLINGS , MT, US)
Text: KBIL 191133Z 1912/2012 24017KT P6SM FEW100 BKN200
Forecast period: 1200 UTC 19 January 2019 to 0800 UTC 20 January 2019
Forecast type: FROM: standard forecast or significant change
Winds: from the WSW (240 degrees) at 20 MPH (17 knots; 8.7 m/s)
Visibility: 6 or more miles 10+ km)
Ceiling: 20000 feet AGL
Clouds: few clouds at 10000 feet AGL
broken clouds at 20000 feet AGL
Weather: no significant weather forecast for this period
Text: FM200800 25010KT P6SM VCSH BKN050
Forecast period: 0800 to 1200 UTC 20 January 2019
Forecast type: FROM: standard forecast or significant change
Winds: from the WSW (250 degrees) at 12 MPH (10 knots; 5.1 m/s)
Visibility: 6 or more miles 10+ km)
Ceiling: 5000 feet AGL
Clouds: broken clouds at 5000 feet AGL
Weather: VCSH  (showers in vicinity)